sensor_id;sensor_type;location;lat;lon;timestamp;P1;durP1;ratioP1;P2;durP2;ratioP2
9108;SDS011;4590;51.462;6.692;2023-07-31T07:29:51;4.30;;;2.50;;
9108;SDS011;4590;51.462;6.692;2023-07-31T07:45:15;4.70;;;2.17;;
9108;SDS011;4590;51.462;6.692;2023-07-31T09:07:51;3.05;;;1.65;;
9108;SDS011;4590;51.462;6.692;2023-07-31T17:38:58;7.57;;;1.77;;
9108;SDS011;4590;51.462;6.692;2023-07-31T17:41:29;2.10;;;1.30;;
9108;SDS011;4590;51.462;6.692;2023-07-31T17:49:38;2.33;;;1.20;;
9108;SDS011;4590;51.462;6.692;2023-07-31T18:08:21;2.95;;;1.67;;
9108;SDS011;4590;51.462;6.692;2023-07-31T18:10:46;2.67;;;1.27;;
9108;SDS011;4590;51.462;6.692;2023-07-31T18:13:16;2.33;;;1.08;;
9108;SDS011;4590;51.462;6.692;2023-07-31T18:15:46;3.83;;;1.20;;
9108;SDS011;4590;51.462;6.692;2023-07-31T18:18:13;2.72;;;1.40;;
9108;SDS011;4590;51.462;6.692;2023-07-31T18:20:42;2.30;;;0.98;;
9108;SDS011;4590;51.462;6.692;2023-07-31T18:23:08;3.10;;;1.27;;
9108;SDS011;4590;51.462;6.692;2023-07-31T18:25:34;2.90;;;1.10;;
9108;SDS011;4590;51.462;6.692;2023-07-31T18:28:00;2.45;;;1.30;;
9108;SDS011;4590;51.462;6.692;2023-07-31T18:30:27;2.95;;;1.30;;
9108;SDS011;4590;51.462;6.692;2023-07-31T18:35:28;3.33;;;1.48;;
9108;SDS011;4590;51.462;6.692;2023-07-31T18:41:19;2.30;;;1.27;;
9108;SDS011;4590;51.462;6.692;2023-07-31T18:43:46;2.00;;;1.08;;
9108;SDS011;4590;51.462;6.692;2023-07-31T19:01:45;1.52;;;1.00;;
9108;SDS011;4590;51.462;6.692;2023-07-31T19:04:16;2.28;;;1.00;;
9108;SDS011;4590;51.462;6.692;2023-07-31T19:11:03;1.75;;;1.05;;
9108;SDS011;4590;51.462;6.692;2023-07-31T19:25:52;1.50;;;0.80;;
9108;SDS011;4590;51.462;6.692;2023-07-31T20:20:15;0.88;;;0.60;;
9108;SDS011;4590;51.462;6.692;2023-07-31T20:22:45;1.25;;;0.70;;
9108;SDS011;4590;51.462;6.692;2023-07-31T20:25:50;1.08;;;0.47;;
9108;SDS011;4590;51.462;6.692;2023-07-31T20:28:17;1.15;;;0.57;;
9108;SDS011;4590;51.462;6.692;2023-07-31T20:30:48;1.90;;;0.70;;
9108;SDS011;4590;51.462;6.692;2023-07-31T20:33:17;1.20;;;0.50;;
9108;SDS011;4590;51.462;6.692;2023-07-31T20:35:43;0.90;;;0.50;;
9108;SDS011;4590;51.462;6.692;2023-07-31T20:38:11;1.20;;;0.57;;
9108;SDS011;4590;51.462;6.692;2023-07-31T20:40:40;3.03;;;0.60;;
9108;SDS011;4590;51.462;6.692;2023-07-31T20:43:06;1.30;;;0.60;;
9108;SDS011;4590;51.462;6.692;2023-07-31T20:53:26;2.75;;;0.70;;
9108;SDS011;4590;51.462;6.692;2023-07-31T20:55:51;1.20;;;0.70;;
9108;SDS011;4590;51.462;6.692;2023-07-31T20:58:17;1.25;;;0.60;;
9108;SDS011;4590;51.462;6.692;2023-07-31T21:00:42;1.52;;;0.68;;
9108;SDS011;4590;51.462;6.692;2023-07-31T21:03:09;1.95;;;0.65;;
9108;SDS011;4590;51.462;6.692;2023-07-31T21:05:35;1.88;;;1.10;;
9108;SDS011;4590;51.462;6.692;2023-07-31T21:08:01;1.42;;;0.70;;
9108;SDS011;4590;51.462;6.692;2023-07-31T21:10:28;1.48;;;0.85;;
9108;SDS011;4590;51.462;6.692;2023-07-31T21:12:54;1.17;;;0.68;;
9108;SDS011;4590;51.462;6.692;2023-07-31T21:15:19;0.93;;;0.57;;
9108;SDS011;4590;51.462;6.692;2023-07-31T21:17:45;1.48;;;0.77;;
9108;SDS011;4590;51.462;6.692;2023-07-31T21:20:11;1.30;;;0.52;;
9108;SDS011;4590;51.462;6.692;2023-07-31T21:22:40;1.10;;;0.80;;
9108;SDS011;4590;51.462;6.692;2023-07-31T21:25:07;1.30;;;0.57;;
9108;SDS011;4590;51.462;6.692;2023-07-31T21:27:33;1.85;;;0.80;;
9108;SDS011;4590;51.462;6.692;2023-07-31T21:29:59;1.10;;;0.60;;
9108;SDS011;4590;51.462;6.692;2023-07-31T21:32:24;1.65;;;0.80;;
9108;SDS011;4590;51.462;6.692;2023-07-31T21:34:50;2.97;;;0.90;;
9108;SDS011;4590;51.462;6.692;2023-07-31T21:37:16;1.17;;;0.63;;
9108;SDS011;4590;51.462;6.692;2023-07-31T21:39:42;1.35;;;0.55;;
9108;SDS011;4590;51.462;6.692;2023-07-31T21:42:07;1.42;;;0.70;;
9108;SDS011;4590;51.462;6.692;2023-07-31T21:44:33;1.63;;;0.73;;
9108;SDS011;4590;51.462;6.692;2023-07-31T21:46:59;1.20;;;0.50;;
9108;SDS011;4590;51.462;6.692;2023-07-31T22:11:43;0.90;;;0.50;;
9108;SDS011;4590;51.462;6.692;2023-07-31T22:26:56;1.58;;;0.85;;
9108;SDS011;4590;51.462;6.692;2023-07-31T22:37:07;1.40;;;0.60;;
9108;SDS011;4590;51.462;6.692;2023-07-31T22:39:33;1.17;;;0.70;;
9108;SDS011;4590;51.462;6.692;2023-07-31T22:42:00;1.00;;;0.60;;
9108;SDS011;4590;51.462;6.692;2023-07-31T22:44:25;1.50;;;0.70;;
9108;SDS011;4590;51.462;6.692;2023-07-31T22:46:52;1.05;;;0.65;;
9108;SDS011;4590;51.462;6.692;2023-07-31T22:49:19;1.40;;;0.40;;
9108;SDS011;4590;51.462;6.692;2023-07-31T22:59:31;2.08;;;0.70;;
9108;SDS011;4590;51.462;6.692;2023-07-31T23:01:57;1.10;;;0.80;;
9108;SDS011;4590;51.462;6.692;2023-07-31T23:04:23;0.80;;;0.57;;
9108;SDS011;4590;51.462;6.692;2023-07-31T23:06:48;1.05;;;0.60;;
9108;SDS011;4590;51.462;6.692;2023-07-31T23:09:14;1.17;;;0.68;;
9108;SDS011;4590;51.462;6.692;2023-07-31T23:16:50;1.10;;;0.60;;
9108;SDS011;4590;51.462;6.692;2023-07-31T23:19:16;1.20;;;0.73;;
9108;SDS011;4590;51.462;6.692;2023-07-31T23:21:43;3.03;;;0.80;;
9108;SDS011;4590;51.462;6.692;2023-07-31T23:24:08;0.98;;;0.50;;
9108;SDS011;4590;51.462;6.692;2023-07-31T23:34:19;0.63;;;0.40;;
9108;SDS011;4590;51.462;6.692;2023-07-31T23:36:45;0.85;;;0.40;;
9108;SDS011;4590;51.462;6.692;2023-07-31T23:52:32;0.60;;;0.35;;
